Time;durP1;ratioP1;P1;durP2;ratioP2;P2;SDS_P1;SDS_P2;PMS_P1;PMS_P2;Temp;Humidity;BMP_temperature;BMP_pressure;BME280_temperature;BME280_humidity;BME280_pressure;Samples;Min_cycle;Max_cycle;Signal;HPM_P1;HPM_P2
2023/04/29 00:00:05;;;;;;;3.58;2.08;;;;;;;11.10;48.70;98987.38;4981644;28;20572;-70
2023/04/29 00:02:31;;;;;;;6.10;2.03;;;;;;;11.13;48.74;99000.22;4998316;28;20030;-70
2023/04/29 00:04:57;;;;;;;9.77;3.03;;;;;;;11.04;48.84;98989.50;4997731;28;20040;-69
2023/04/29 00:07:22;;;;;;;6.95;2.90;;;;;;;11.06;48.74;98993.78;4980932;28;20041;-70
2023/04/29 00:09:48;;;;;;;6.65;3.22;;;;;;;11.00;48.87;98992.44;4997977;28;20643;-71
2023/04/29 00:12:13;;;;;;;7.68;3.60;;;;;;;10.91;48.84;98988.75;4981517;28;20034;-69
2023/04/29 00:14:39;;;;;;;7.15;3.72;;;;;;;10.83;48.95;98975.41;4997472;28;20045;-71
2023/04/29 00:17:05;;;;;;;12.50;3.67;;;;;;;10.82;48.69;98989.44;4998038;28;20030;-69
2023/04/29 00:19:30;;;;;;;6.43;3.47;;;;;;;10.80;48.85;98980.84;4997327;28;20053;-69
2023/04/29 00:21:56;;;;;;;6.53;3.75;;;;;;;10.79;48.85;98987.88;4980645;28;20037;-69
2023/04/29 00:24:21;;;;;;;7.40;3.00;;;;;;;10.73;48.87;98975.25;4996812;28;20042;-69
2023/04/29 00:26:47;;;;;;;8.57;3.58;;;;;;;10.74;48.93;98987.38;4964055;28;20054;-69
2023/04/29 00:29:13;;;;;;;6.88;3.00;;;;;;;10.72;48.86;98989.28;5014910;28;20504;-69
2023/04/29 00:31:39;;;;;;;8.30;3.05;;;;;;;10.65;48.72;98986.25;4997610;28;20572;-69
2023/04/29 00:34:04;;;;;;;6.10;2.95;;;;;;;10.67;48.85;98993.97;4997366;28;20445;-69
2023/04/29 00:36:31;;;;;;;5.13;3.13;;;;;;;10.64;49.07;98986.38;5014518;28;20069;-69
2023/04/29 00:38:57;;;;;;;4.60;2.58;;;;;;;10.65;48.93;98980.22;4997096;28;20378;-69
2023/04/29 00:41:23;;;;;;;4.90;2.80;;;;;;;10.61;49.01;98981.38;5014587;28;20040;-69
2023/04/29 00:43:48;;;;;;;6.20;2.70;;;;;;;10.61;48.89;98970.91;4980343;28;20048;-69
2023/04/29 00:46:14;;;;;;;4.72;2.35;;;;;;;10.61;48.79;98986.59;4980923;28;20038;-69
2023/04/29 00:48:40;;;;;;;5.32;2.40;;;;;;;10.55;49.00;98974.81;4981089;28;20176;-69
2023/04/29 00:51:05;;;;;;;8.05;2.30;;;;;;;10.54;49.08;98983.59;4996955;28;20085;-69
2023/04/29 00:53:31;;;;;;;6.47;2.60;;;;;;;10.55;49.26;98984.41;4980568;28;20045;-70
2023/04/29 00:55:57;;;;;;;5.13;2.42;;;;;;;10.52;49.12;98987.28;4980540;28;20412;-70
2023/04/29 00:58:29;;;;;;;4.65;2.40;;;;;;;10.50;49.05;98983.00;4980936;28;20042;-70
2023/04/29 01:00:55;;;;;;;5.93;2.42;;;;;;;10.49;49.10;98983.09;4981451;28;20045;-69
2023/04/29 01:03:20;;;;;;;5.15;2.10;;;;;;;10.49;48.69;98983.91;4997091;28;20048;-69
2023/04/29 01:05:46;;;;;;;3.95;2.00;;;;;;;10.50;48.57;98976.94;4980308;28;20034;-70
2023/04/29 01:08:33;;;;;;;6.43;2.20;;;;;;;10.56;48.43;98975.66;4996684;28;20034;-69
2023/04/29 01:11:08;;;;;;;7.03;2.13;;;;;;;10.59;48.13;98975.44;4979916;28;20034;-69
2023/04/29 01:13:37;;;;;;;6.78;2.25;;;;;;;10.64;48.06;98984.59;4980381;28;20034;-70
2023/04/29 01:16:03;;;;;;;;;;;;;;;10.66;48.26;98966.22;5014323;28;20064;-70
2023/04/29 01:18:52;;;;;;;3.58;2.20;;;;;;;10.61;48.44;98970.91;4996511;28;20388;-70
2023/04/29 01:21:19;;;;;;;5.28;2.45;;;;;;;10.61;48.29;98957.88;4934452;29;20419;-70
2023/04/29 01:23:44;;;;;;;4.78;2.38;;;;;;;10.64;48.53;98961.09;4918176;29;20044;-70
2023/04/29 01:26:10;;;;;;;5.25;2.50;;;;;;;10.58;48.50;98956.34;4933909;29;20044;-70
2023/04/29 01:28:52;;;;;;;2.80;1.80;;;;;;;10.61;48.80;98950.03;4934105;29;20051;-70
2023/04/29 01:31:40;;;;;;;4.90;2.15;;;;;;;10.65;49.00;98956.72;4920035;29;20131;-70
2023/04/29 01:34:28;;;;;;;4.90;2.10;;;;;;;10.62;48.94;98949.94;4934402;29;20050;-69
2023/04/29 01:37:15;;;;;;;4.47;2.22;;;;;;;10.62;49.09;98954.31;4901899;29;20062;-69
2023/04/29 01:40:15;;;;;;;5.15;2.47;;;;;;;10.60;49.05;98941.38;4934156;29;20095;-69
2023/04/29 01:42:50;;;;;;;4.25;2.20;;;;;;;10.59;49.30;98941.50;4930950;29;20043;-69
2023/04/29 01:45:16;;;;;;;7.50;2.78;;;;;;;10.57;49.52;98941.59;4933816;29;20043;-70
2023/04/29 01:47:41;;;;;;;4.55;2.30;;;;;;;10.56;49.49;98936.50;4934198;29;20156;-70
2023/04/29 01:50:07;;;;;;;6.57;2.47;;;;;;;10.57;49.26;98939.00;4917948;29;20096;-70
2023/04/29 01:52:33;;;;;;;4.75;2.20;;;;;;;10.52;49.45;98935.91;4933339;29;20464;-70
2023/04/29 01:54:58;;;;;;;6.85;2.22;;;;;;;10.47;49.37;98931.00;4933691;29;20108;-69
2023/04/29 01:57:24;;;;;;;5.25;2.33;;;;;;;10.49;49.27;98939.53;4944570;28;20520;-70
2023/04/29 01:59:49;;;;;;;3.97;2.38;;;;;;;10.48;49.49;98939.66;4963261;28;20117;-69
2023/04/29 02:02:19;;;;;;;3.30;2.03;;;;;;;10.45;49.54;98937.28;4995690;28;20037;-69
2023/04/29 02:04:45;;;;;;;3.22;2.20;;;;;;;10.39;49.74;98930.75;4996392;28;20030;-69
2023/04/29 02:07:10;;;;;;;5.07;2.30;;;;;;;10.37;49.84;98931.78;4995586;28;20042;-69
2023/04/29 02:09:36;;;;;;;5.10;2.40;;;;;;;10.35;49.76;98926.66;4995346;28;20093;-69
2023/04/29 02:12:03;;;;;;;3.58;2.22;;;;;;;10.34;49.79;98926.78;4979207;28;20042;-69
2023/04/29 02:14:29;;;;;;;4.22;2.25;;;;;;;10.30;49.88;98929.56;5012844;28;20048;-69
2023/04/29 02:16:54;;;;;;;2.75;1.98;;;;;;;10.22;49.81;98925.88;4995918;28;20033;-69
2023/04/29 02:19:20;;;;;;;5.00;2.30;;;;;;;10.20;50.05;98925.97;5012707;28;20108;-69
2023/04/29 02:21:45;;;;;;;7.45;2.58;;;;;;;10.15;50.01;98925.44;4995219;28;20042;-69
2023/04/29 02:24:11;;;;;;;7.53;2.13;;;;;;;10.17;50.03;98934.03;5012655;28;20392;-69
2023/04/29 02:26:37;;;;;;;8.55;2.50;;;;;;;10.15;49.96;98930.66;5012512;28;20080;-69
2023/04/29 02:29:02;;;;;;;5.10;2.22;;;;;;;10.16;50.15;98929.75;4978422;28;20042;-69
2023/04/29 02:31:28;;;;;;;4.38;2.28;;;;;;;10.13;49.99;98930.78;4978490;28;20042;-69
2023/04/29 02:33:54;;;;;;;8.35;2.47;;;;;;;10.12;49.87;98928.28;5012488;28;20063;-68
2023/04/29 02:36:20;;;;;;;7.10;2.40;;;;;;;10.09;49.82;98921.53;4993993;28;20055;-69
2023/04/29 02:38:45;;;;;;;6.88;2.30;;;;;;;10.13;49.98;98935.16;4978982;28;20034;-69
2023/04/29 02:41:15;;;;;;;4.95;2.40;;;;;;;10.11;50.12;98930.06;5013081;28;20045;-69
2023/04/29 02:43:41;;;;;;;5.85;2.25;;;;;;;10.07;50.19;98927.78;4978863;28;20034;-68
2023/04/29 02:46:06;;;;;;;3.70;2.22;;;;;;;10.01;50.11;98915.19;4978288;28;20382;-69
2023/04/29 02:48:32;;;;;;;3.20;2.20;;;;;;;10.00;50.31;98926.56;4994399;28;20042;-68
2023/04/29 02:50:57;;;;;;;3.17;2.10;;;;;;;9.98;50.30;98929.28;4994540;28;20568;-69
2023/04/29 02:53:23;;;;;;;6.05;2.45;;;;;;;9.94;50.39;98930.44;4978789;28;20042;-68
2023/04/29 02:55:48;;;;;;;3.63;2.20;;;;;;;9.94;50.47;98923.44;4978461;28;20097;-68
2023/04/29 02:58:14;;;;;;;4.82;2.30;;;;;;;9.96;50.58;98920.72;4977477;28;20041;-69
2023/04/29 03:00:40;;;;;;;3.97;2.30;;;;;;;9.96;50.44;98929.38;4994754;28;20052;-70
2023/04/29 03:03:05;;;;;;;4.30;2.03;;;;;;;9.91;50.57;98922.81;4994387;28;20057;-69
2023/04/29 03:05:31;;;;;;;3.97;2.22;;;;;;;9.92;50.46;98922.72;5011867;28;20075;-69
2023/04/29 03:07:57;;;;;;;4.05;2.45;;;;;;;9.86;50.42;98917.09;4962123;28;20465;-69
2023/04/29 03:10:23;;;;;;;4.03;2.22;;;;;;;9.87;50.49;98929.22;4977426;28;20041;-69
2023/04/29 03:12:48;;;;;;;4.05;1.95;;;;;;;9.87;50.61;98934.44;5011653;28;20030;-69
2023/04/29 03:15:14;;;;;;;3.70;2.20;;;;;;;9.80;50.25;98926.19;5011890;28;20038;-69
2023/04/29 03:17:39;;;;;;;4.80;2.35;;;;;;;9.84;50.44;98935.47;4978244;28;20034;-69
2023/04/29 03:20:06;;;;;;;7.80;2.53;;;;;;;9.86;50.71;98936.19;4994093;28;20042;-69
2023/04/29 03:22:32;;;;;;;5.38;2.10;;;;;;;9.85;50.47;98931.94;5011637;28;20579;-69
2023/04/29 03:24:57;;;;;;;3.85;2.20;;;;;;;9.86;50.62;98936.19;5011686;28;20141;-69
2023/04/29 03:27:23;;;;;;;5.97;2.20;;;;;;;9.89;50.38;98938.56;4978015;28;20034;-69
2023/04/29 03:29:49;;;;;;;4.85;2.08;;;;;;;9.87;50.51;98930.03;4994451;28;20045;-69
2023/04/29 03:32:14;;;;;;;4.70;2.10;;;;;;;9.95;50.19;98937.31;4994189;28;20069;-68
2023/04/29 03:34:40;;;;;;;6.40;2.35;;;;;;;9.99;50.22;98937.94;4978047;28;20046;-69
2023/04/29 03:37:05;;;;;;;5.07;2.60;;;;;;;10.19;55.08;98934.75;5012016;28;20034;-69
2023/04/29 03:39:31;;;;;;;9.45;3.55;;;;;;;11.11;60.05;98936.78;4994489;28;20054;-68
2023/04/29 03:42:00;;;;;;;6.82;3.10;;;;;;;11.97;51.07;98940.69;4961819;28;20037;-70
2023/04/29 03:44:26;;;;;;;8.98;3.17;;;;;;;12.65;48.94;98932.63;5011339;28;20069;-69
2023/04/29 03:46:51;;;;;;;5.63;2.80;;;;;;;13.33;47.09;98945.41;4994158;28;20036;-68
2023/04/29 03:49:17;;;;;;;5.22;2.38;;;;;;;14.03;49.51;98941.13;5011624;28;20081;-68
2023/04/29 03:51:44;;;;;;;7.68;2.03;;;;;;;14.69;43.36;98931.03;5025153;28;20037;-68
2023/04/29 03:54:10;;;;;;;2.90;1.70;;;;;;;15.32;41.37;98938.41;5013557;28;20041;-68
2023/04/29 03:56:35;;;;;;;3.15;1.70;;;;;;;15.99;39.38;98939.16;5031010;28;20041;-68
2023/04/29 03:59:01;;;;;;;4.18;1.83;;;;;;;16.67;37.43;98937.88;5013630;28;20037;-70
2023/04/29 04:01:27;;;;;;;6.47;2.05;;;;;;;17.39;35.86;98940.41;4999185;28;20456;-71
2023/04/29 04:03:52;;;;;;;4.88;1.90;;;;;;;18.11;34.77;98947.22;5016850;28;20049;-70
2023/04/29 04:06:18;;;;;;;4.70;1.80;;;;;;;18.81;32.98;98942.34;5016887;28;20373;-70
2023/04/29 04:08:43;;;;;;;14.57;1.83;;;;;;;19.55;42.10;98938.84;5016853;28;20053;-72
2023/04/29 04:11:09;;;;;;;3.97;1.80;;;;;;;20.38;32.56;98947.28;5017129;28;20416;-73
2023/04/29 04:13:35;;;;;;;7.10;1.73;;;;;;;21.04;30.49;98944.97;5016734;28;20045;-71
2023/04/29 04:16:01;;;;;;;4.90;1.90;;;;;;;21.63;29.12;98946.09;5015284;28;20484;-71
2023/04/29 04:18:27;;;;;;;7.22;2.15;;;;;;;22.25;28.23;98939.53;4998925;28;20029;-72
2023/04/29 04:20:52;;;;;;;5.82;1.48;;;;;;;22.77;27.11;98942.91;5016978;28;20088;-71
2023/04/29 04:23:18;;;;;;;5.25;1.80;;;;;;;23.27;26.10;98943.75;4989597;28;20038;-71
2023/04/29 04:25:47;;;;;;;5.13;1.67;;;;;;;23.91;27.07;98943.72;4996851;28;20198;-72
2023/04/29 04:28:12;;;;;;;4.85;1.77;;;;;;;24.43;24.88;98944.13;5000218;28;20159;-72
2023/04/29 04:30:38;;;;;;;12.27;1.70;;;;;;;24.92;31.68;98951.81;5008769;28;20482;-71
2023/04/29 04:33:03;;;;;;;15.70;1.80;;;;;;;26.15;33.07;98947.69;5017028;28;20104;-69
2023/04/29 04:35:29;;;;;;;28.90;1.90;;;;;;;27.33;30.22;98933.94;4999524;28;20416;-75
2023/04/29 04:37:54;;;;;;;9.88;1.80;;;;;;;28.18;26.36;98932.34;4998381;28;20048;-75
2023/04/29 04:40:20;;;;;;;8.13;1.70;;;;;;;28.95;24.53;98937.03;5013919;28;20442;-75
2023/04/29 04:42:46;;;;;;;5.65;1.73;;;;;;;29.75;24.23;98932.91;4980579;28;20065;-73
2023/04/29 04:45:11;;;;;;;6.22;2.17;;;;;;;29.90;21.36;98938.66;5014035;28;20034;-73
2023/04/29 04:47:37;;;;;;;7.18;1.80;;;;;;;30.08;19.77;98929.56;5014033;28;20052;-73
2023/04/29 04:50:03;;;;;;;4.72;1.60;;;;;;;29.51;19.73;98926.75;4980649;28;20042;-72
2023/04/29 04:52:28;;;;;;;9.90;2.15;;;;;;;28.90;19.93;98935.03;4980141;28;20445;-72
2023/04/29 04:54:54;;;;;;;7.28;1.90;;;;;;;28.90;19.64;98932.34;4979967;28;20042;-76
2023/04/29 04:57:19;;;;;;;4.57;1.83;;;;;;;29.52;18.73;98939.94;5014173;28;20038;-76
2023/04/29 04:59:45;;;;;;;8.25;1.75;;;;;;;30.08;17.86;98940.31;4996059;28;20533;-72
2023/04/29 05:02:10;;;;;;;6.95;1.90;;;;;;;30.11;18.58;98947.94;5013820;28;20124;-75
2023/04/29 05:04:36;;;;;;;11.45;1.90;;;;;;;30.94;18.98;98935.91;4996309;28;20113;-75
2023/04/29 05:07:01;;;;;;;8.32;1.80;;;;;;;31.70;19.42;98949.72;4996418;28;20030;-79
2023/04/29 05:09:27;;;;;;;14.00;2.03;;;;;;;32.65;20.40;98943.22;4980244;28;20417;-75
2023/04/29 05:11:53;;;;;;;8.98;2.30;;;;;;;32.61;19.67;98940.19;4963021;28;20097;-77
2023/04/29 05:14:18;;;;;;;10.63;2.15;;;;;;;32.76;18.35;98936.03;5013663;28;20042;-80
2023/04/29 05:16:45;;;;;;;6.60;2.45;;;;;;;32.83;18.06;98950.16;5013701;28;20030;-76
2023/04/29 05:19:11;;;;;;;6.83;1.97;;;;;;;33.47;17.48;98948.44;5013925;28;20045;-80
2023/04/29 05:21:36;;;;;;;5.28;1.92;;;;;;;34.06;15.86;98947.34;4980055;28;20417;-74
2023/04/29 05:24:02;;;;;;;7.35;2.10;;;;;;;34.27;14.83;98942.84;4995390;28;20080;-76
2023/04/29 05:26:28;;;;;;;7.55;2.00;;;;;;;34.46;15.06;98943.13;4996844;28;20050;-81
2023/04/29 05:28:54;;;;;;;4.38;1.85;;;;;;;34.82;13.62;98945.06;4981286;28;20078;-85
2023/04/29 05:31:20;;;;;;;3.35;1.90;;;;;;;34.81;13.54;98941.56;4980793;28;20054;-77
2023/04/29 05:33:45;;;;;;;6.10;1.98;;;;;;;34.92;13.52;98945.06;4978884;28;20608;-78
2023/04/29 05:36:11;;;;;;;2.97;1.80;;;;;;;35.24;13.22;98944.75;5013714;28;20042;-78
2023/04/29 05:38:37;;;;;;;6.25;2.10;;;;;;;35.23;13.90;98945.81;5013440;28;20034;-79
2023/04/29 05:41:02;;;;;;;4.45;2.08;;;;;;;35.36;13.60;98940.94;5012553;28;20045;-78
2023/04/29 05:43:28;;;;;;;3.35;1.65;;;;;;;35.44;13.47;98941.19;5013475;28;20452;-82
2023/04/29 05:45:54;;;;;;;6.30;1.85;;;;;;;35.51;13.51;98933.56;4979558;28;20026;-79
2023/04/29 05:48:20;;;;;;;4.70;1.88;;;;;;;34.72;14.14;98930.38;4995628;28;20072;-78
2023/04/29 05:50:47;;;;;;;6.40;2.10;;;;;;;33.92;13.90;98933.47;5013286;28;20069;-78
2023/04/29 05:53:13;;;;;;;6.10;2.17;;;;;;;34.30;13.78;98939.59;4994355;28;20511;-77
2023/04/29 05:55:38;;;;;;;4.57;2.13;;;;;;;34.38;14.14;98924.69;4995661;28;20026;-79
2023/04/29 05:58:04;;;;;;;8.65;2.05;;;;;;;34.71;13.24;98931.50;4995446;28;20040;-79
2023/04/29 06:00:30;;;;;;;8.02;2.28;;;;;;;34.52;13.64;98930.38;4995629;28;20061;-78
2023/04/29 06:02:56;;;;;;;6.63;2.55;;;;;;;33.23;13.91;98929.91;5013765;28;20099;-79
2023/04/29 06:05:22;;;;;;;8.40;2.50;;;;;;;32.72;14.44;98926.78;5015134;28;20481;-79
2023/04/29 06:07:47;;;;;;;15.90;3.17;;;;;;;31.77;14.81;98925.25;4982338;28;20076;-78
2023/04/29 06:10:14;;;;;;;10.27;3.22;;;;;;;31.23;15.47;98931.25;5032760;28;20041;-78
2023/04/29 06:12:39;;;;;;;11.38;2.95;;;;;;;30.40;16.28;98928.28;5015088;28;20045;-77
2023/04/29 06:15:06;;;;;;;12.48;3.30;;;;;;;30.45;16.75;98926.47;4998778;28;20047;-79
2023/04/29 06:17:31;;;;;;;18.98;3.00;;;;;;;30.72;16.32;98931.25;5014524;28;20506;-78
2023/04/29 06:19:57;;;;;;;8.15;2.95;;;;;;;30.86;16.76;98929.06;5032918;28;20053;-80
2023/04/29 06:22:22;;;;;;;11.32;2.63;;;;;;;30.73;16.92;98924.81;5030625;28;20037;-82
2023/04/29 06:24:48;;;;;;;13.80;3.92;;;;;;;30.67;16.65;98923.91;5014141;28;20113;-82
2023/04/29 06:27:14;;;;;;;11.93;3.58;;;;;;;30.70;16.39;98917.22;5014962;28;20034;-81
2023/04/29 06:29:40;;;;;;;12.27;3.20;;;;;;;30.43;16.54;98912.47;4998909;28;20041;-81
2023/04/29 06:32:06;;;;;;;10.05;3.28;;;;;;;30.78;16.60;98919.50;5014621;28;20477;-80
2023/04/29 06:34:32;;;;;;;8.82;2.60;;;;;;;31.14;16.02;98909.28;5014604;28;20041;-82
2023/04/29 06:36:57;;;;;;;8.38;2.50;;;;;;;31.46;15.47;98911.34;4998164;28;20033;-80
2023/04/29 06:39:23;;;;;;;11.07;2.40;;;;;;;31.71;15.13;98908.19;5015341;28;20045;-81
2023/04/29 06:41:48;;;;;;;4.82;2.15;;;;;;;31.72;14.31;98906.28;5014683;28;20037;-81
2023/04/29 06:44:15;;;;;;;12.60;2.15;;;;;;;32.14;14.24;98902.22;5015492;28;20049;-81
2023/04/29 06:46:41;;;;;;;9.00;2.20;;;;;;;32.46;14.12;98900.34;5015280;28;20085;-82
2023/04/29 06:49:07;;;;;;;16.48;2.20;;;;;;;32.64;13.91;98888.38;5032133;28;20064;-82
2023/04/29 06:51:33;;;;;;;7.35;1.80;;;;;;;32.92;13.75;98891.00;4998347;28;20523;-84
2023/04/29 06:53:58;;;;;;;10.23;2.25;;;;;;;33.21;13.78;98886.09;4998690;28;20045;-82
2023/04/29 06:56:25;;;;;;;11.25;2.03;;;;;;;33.36;13.49;98886.13;5014919;28;20037;-81
2023/04/29 06:58:50;;;;;;;10.27;1.55;;;;;;;33.47;13.22;98887.00;5014728;28;20042;-81
2023/04/29 07:01:16;;;;;;;5.72;1.67;;;;;;;33.45;12.83;98888.38;4997971;28;20033;-82
2023/04/29 07:03:42;;;;;;;8.10;1.73;;;;;;;33.50;12.98;98885.69;5014826;28;20532;-80
2023/04/29 07:06:07;;;;;;;6.70;1.55;;;;;;;33.58;12.74;98892.47;5013838;28;20476;-80
2023/04/29 07:08:33;;;;;;;9.85;1.55;;;;;;;33.64;12.85;98877.88;5032392;28;20037;-81
2023/04/29 07:10:59;;;;;;;4.03;1.58;;;;;;;33.70;12.90;98885.78;4997806;28;20072;-81
2023/04/29 07:13:24;;;;;;;8.48;1.52;;;;;;;33.63;12.49;98876.25;4997933;28;20037;-82
2023/04/29 07:15:50;;;;;;;4.53;1.70;;;;;;;33.70;13.07;98887.66;5014205;28;20034;-80
2023/04/29 07:18:16;;;;;;;4.35;1.70;;;;;;;33.82;12.52;98882.03;4997776;28;20073;-81
2023/04/29 07:20:42;;;;;;;5.30;1.50;;;;;;;33.92;13.03;98881.22;5014778;28;20045;-82
2023/04/29 07:23:08;;;;;;;6.60;1.40;;;;;;;33.65;12.32;98879.50;4998168;28;20045;-81
2023/04/29 07:25:33;;;;;;;4.03;1.45;;;;;;;33.34;12.31;98872.06;5014114;28;20046;-82
2023/04/29 07:27:59;;;;;;;5.70;1.58;;;;;;;33.18;12.98;98873.88;5014418;28;20080;-80
2023/04/29 07:30:24;;;;;;;7.07;1.80;;;;;;;33.32;12.54;98871.53;5014534;28;20038;-79
2023/04/29 07:32:50;;;;;;;7.43;1.60;;;;;;;33.36;12.77;98878.03;4998455;28;20038;-84
2023/04/29 07:35:16;;;;;;;8.38;1.85;;;;;;;33.31;12.68;98877.19;5001124;28;20034;-82
2023/04/29 07:37:42;;;;;;;12.35;1.63;;;;;;;33.46;12.41;98869.16;5018426;28;20050;-81
2023/04/29 07:40:08;;;;;;;12.35;1.67;;;;;;;33.09;12.87;98867.31;5018709;28;20492;-79
2023/04/29 07:42:33;;;;;;;11.20;1.95;;;;;;;32.98;13.17;98874.53;5017976;28;20076;-80
2023/04/29 07:44:59;;;;;;;7.38;1.60;;;;;;;33.15;12.93;98868.97;5017861;28;20045;-79
2023/04/29 07:47:24;;;;;;;5.50;1.50;;;;;;;33.04;12.79;98869.19;5001258;28;20040;-81
2023/04/29 07:49:51;;;;;;;5.30;1.50;;;;;;;32.80;13.41;98862.28;5017513;28;20480;-81
2023/04/29 07:52:17;;;;;;;8.23;2.00;;;;;;;32.59;12.97;98852.34;5035329;28;20041;-80
2023/04/29 07:54:42;;;;;;;10.77;1.70;;;;;;;32.59;13.22;98855.88;5018104;28;20036;-80
2023/04/29 07:57:08;;;;;;;3.72;1.40;;;;;;;32.57;13.68;98854.50;5017876;28;20034;-80
2023/04/29 07:59:33;;;;;;;7.28;1.73;;;;;;;32.65;13.75;98862.16;5017868;28;20042;-81
2023/04/29 08:01:59;;;;;;;6.93;1.40;;;;;;;32.25;13.52;98852.63;5017654;28;20049;-79
2023/04/29 08:04:24;;;;;;;4.38;1.63;;;;;;;32.28;13.74;98846.72;5017806;28;20060;-82
2023/04/29 08:06:50;;;;;;;7.85;1.73;;;;;;;32.23;13.61;98852.88;5018024;28;20029;-79
2023/04/29 08:09:16;;;;;;;10.88;1.73;;;;;;;32.33;13.89;98849.44;5033895;28;20046;-81
2023/04/29 08:11:42;;;;;;;5.32;1.33;;;;;;;31.71;13.75;98843.44;5016810;28;20041;-80
2023/04/29 08:14:07;;;;;;;9.82;1.58;;;;;;;31.79;14.13;98842.16;5001243;28;20046;-81
2023/04/29 08:16:33;;;;;;;5.55;1.60;;;;;;;31.96;14.25;98835.84;5017324;28;20453;-80
2023/04/29 08:18:58;;;;;;;6.57;1.85;;;;;;;32.20;14.05;98829.09;5034835;28;20041;-81
2023/04/29 08:21:24;;;;;;;7.55;1.75;;;;;;;32.35;14.25;98831.09;5000557;28;20076;-80
2023/04/29 08:23:49;;;;;;;5.13;1.50;;;;;;;32.46;14.15;98823.91;5035057;28;20172;-81
2023/04/29 08:26:15;;;;;;;7.70;1.58;;;;;;;32.49;14.47;98817.16;5016803;28;20045;-81
2023/04/29 08:28:40;;;;;;;5.50;1.50;;;;;;;32.30;14.57;98822.16;5000120;28;20104;-80
2023/04/29 08:31:06;;;;;;;6.20;1.60;;;;;;;32.15;13.88;98814.72;5017463;28;20504;-80
2023/04/29 08:33:33;;;;;;;7.22;1.58;;;;;;;31.96;14.01;98815.09;5017127;28;20044;-80
2023/04/29 08:35:59;;;;;;;9.88;1.83;;;;;;;31.60;14.54;98822.00;5017071;28;20033;-82
2023/04/29 08:38:24;;;;;;;5.00;1.70;;;;;;;31.73;14.89;98813.50;5034970;28;20389;-81
2023/04/29 08:40:50;;;;;;;5.53;1.67;;;;;;;31.49;14.87;98813.75;5016947;28;20095;-81
2023/04/29 08:43:15;;;;;;;7.82;1.73;;;;;;;31.36;14.80;98814.13;5000324;28;20128;-81
2023/04/29 08:45:42;;;;;;;8.48;1.80;;;;;;;31.29;15.01;98800.81;5016071;28;20077;-81
2023/04/29 08:48:07;;;;;;;3.95;1.65;;;;;;;31.10;14.56;98794.94;5000358;28;20121;-81
2023/04/29 08:50:41;;;;;;;8.30;2.83;;;;;;;30.69;15.23;98801.63;5016836;28;20060;-81
2023/04/29 08:53:09;;;;;;;8.13;2.50;;;;;;;30.54;15.38;98807.59;5034389;28;20085;-82
2023/04/29 08:55:36;;;;;;;4.18;2.00;;;;;;;30.49;15.51;98792.19;5016995;28;20093;-80
2023/04/29 08:58:01;;;;;;;9.23;2.05;;;;;;;30.35;15.06;98801.59;5016880;28;20037;-82
2023/04/29 09:00:27;;;;;;;5.35;1.88;;;;;;;29.88;15.70;98798.13;5016504;28;20068;-83
2023/04/29 09:02:52;;;;;;;8.55;1.77;;;;;;;29.72;15.91;98785.44;5000514;28;20029;-80
2023/04/29 09:05:18;;;;;;;4.28;1.70;;;;;;;29.58;15.98;98792.97;4999922;28;20045;-79
2023/04/29 09:07:43;;;;;;;8.35;1.50;;;;;;;29.37;16.44;98795.25;4999621;28;20100;-79
2023/04/29 09:10:09;;;;;;;9.15;1.52;;;;;;;29.49;16.57;98789.84;5016053;28;20108;-81
2023/04/29 09:12:35;;;;;;;4.70;1.60;;;;;;;29.53;16.63;98799.06;5016086;28;20483;-79
2023/04/29 09:15:01;;;;;;;8.68;1.85;;;;;;;29.39;16.80;98778.91;5033653;28;20077;-80
2023/04/29 09:17:46;;;;;;;3.85;1.50;;;;;;;29.58;17.07;98784.91;5016193;28;20041;-81
2023/04/29 09:20:20;;;;;;;5.00;1.58;;;;;;;29.73;16.94;98779.81;5016329;28;20037;-80
2023/04/29 09:22:50;;;;;;;6.35;1.75;;;;;;;29.69;16.83;98778.66;5016007;28;20037;-82
2023/04/29 09:25:16;;;;;;;7.43;1.90;;;;;;;29.54;16.40;98787.25;5015604;28;20061;-82
2023/04/29 09:27:41;;;;;;;4.40;1.90;;;;;;;29.32;16.33;98780.88;5015817;28;20041;-81
2023/04/29 09:30:08;;;;;;;4.68;1.92;;;;;;;28.96;16.04;98769.41;4999957;28;20100;-80
2023/04/29 09:32:33;;;;;;;6.43;1.67;;;;;;;28.79;17.00;98766.59;5016242;28;20121;-80
2023/04/29 09:35:21;;;;;;;8.05;1.52;;;;;;;28.74;16.75;98753.88;5015726;28;20117;-80
2023/04/29 09:37:47;;;;;;;9.65;1.75;;;;;;;28.47;16.98;98757.00;4999911;28;20563;-80
2023/04/29 09:40:33;;;;;;;7.93;1.73;;;;;;;28.40;17.02;98750.13;5015557;28;20037;-80
2023/04/29 09:42:59;;;;;;;3.33;1.70;;;;;;;28.04;17.10;98751.94;4998970;28;20041;-79
2023/04/29 09:45:40;;;;;;;4.10;1.55;;;;;;;27.98;17.64;98754.50;4999154;28;20472;-81
2023/04/29 09:48:07;;;;;;;5.70;1.60;;;;;;;27.85;17.71;98743.97;5015687;28;20354;-80
2023/04/29 09:50:38;;;;;;;4.40;1.95;;;;;;;28.00;18.12;98753.47;4998896;28;20068;-79
2023/04/29 09:53:07;;;;;;;6.57;1.90;;;;;;;28.02;17.64;98740.63;4999340;28;20132;-79
2023/04/29 09:55:36;;;;;;;5.43;1.95;;;;;;;27.68;18.08;98746.47;4983678;28;20057;-81
2023/04/29 09:58:01;;;;;;;11.35;2.13;;;;;;;27.53;17.95;98720.09;5015153;28;20057;-79
2023/04/29 10:00:31;;;;;;;4.82;2.00;;;;;;;27.47;18.26;98731.72;5015327;28;20076;-80
2023/04/29 10:02:57;;;;;;;4.10;1.70;;;;;;;27.26;18.09;98719.56;5015241;28;20472;-80
2023/04/29 10:05:24;;;;;;;5.35;1.88;;;;;;;27.06;18.28;98727.88;4998356;28;20044;-80
2023/04/29 10:07:50;;;;;;;11.77;2.00;;;;;;;26.93;17.51;98725.34;4999189;28;20420;-80
2023/04/29 10:10:16;;;;;;;6.60;2.10;;;;;;;26.27;18.14;98723.09;4998078;28;20041;-80
2023/04/29 10:12:41;;;;;;;7.88;1.80;;;;;;;26.10;18.89;98708.63;5015016;28;20496;-80
2023/04/29 10:15:26;;;;;;;4.97;1.67;;;;;;;26.00;18.77;98725.97;5015590;28;20064;-80
2023/04/29 10:17:57;;;;;;;4.40;1.90;;;;;;;26.01;19.00;98710.75;5015386;28;20046;-81
2023/04/29 10:20:23;;;;;;;5.07;1.73;;;;;;;26.05;19.06;98703.94;5015094;28;20037;-80
2023/04/29 10:22:49;;;;;;;7.93;1.70;;;;;;;26.14;19.30;98701.78;4997980;28;20041;-81
2023/04/29 10:25:17;;;;;;;5.28;1.70;;;;;;;25.77;19.04;98707.00;5014423;28;20084;-79
2023/04/29 10:27:45;;;;;;;5.00;1.50;;;;;;;25.78;19.58;98709.44;5014785;28;20385;-81
2023/04/29 10:30:12;;;;;;;5.70;1.60;;;;;;;25.83;19.44;98700.78;4999114;28;20041;-80
2023/04/29 10:32:42;;;;;;;6.80;1.60;;;;;;;25.77;19.82;98691.75;5015699;28;20061;-80
2023/04/29 10:35:13;;;;;;;5.22;1.60;;;;;;;25.92;19.86;98690.63;4998420;28;20048;-80
2023/04/29 10:37:41;;;;;;;3.58;1.85;;;;;;;25.73;19.91;98695.09;4999277;28;20048;-79
2023/04/29 10:40:14;;;;;;;7.47;1.70;;;;;;;25.81;19.77;98698.31;5014356;28;20041;-80
2023/04/29 10:42:45;;;;;;;6.32;1.60;;;;;;;25.66;19.81;98689.78;5014182;28;20044;-80
2023/04/29 10:45:26;;;;;;;4.85;1.88;;;;;;;25.53;19.91;98697.91;4998330;28;20408;-81
2023/04/29 10:48:10;;;;;;;4.65;1.95;;;;;;;25.08;19.73;98702.22;5014857;28;20037;-80
2023/04/29 10:50:48;;;;;;;7.43;1.77;;;;;;;24.57;20.55;98702.97;5014720;28;20041;-79
2023/04/29 10:53:19;;;;;;;5.72;2.05;;;;;;;24.32;20.35;98684.09;5032121;28;20029;-80
2023/04/29 10:55:53;;;;;;;5.68;2.05;;;;;;;24.24;21.22;98682.47;4998522;28;20497;-82
2023/04/29 10:58:40;;;;;;;4.95;1.92;;;;;;;24.21;20.89;98685.59;5014392;28;20045;-78
2023/04/29 11:01:10;;;;;;;8.07;2.30;;;;;;;23.98;21.34;98689.47;4998002;28;20425;-80
2023/04/29 11:03:45;;;;;;;11.90;1.98;;;;;;;23.75;21.59;98681.84;5015162;28;20037;-80
2023/04/29 11:06:10;;;;;;;9.38;2.08;;;;;;;23.81;21.50;98675.69;5014811;28;20038;-79
2023/04/29 11:08:38;;;;;;;11.25;2.03;;;;;;;23.90;21.95;98688.88;5014191;28;20030;-80
2023/04/29 11:11:05;;;;;;;6.78;2.03;;;;;;;23.83;21.76;98675.47;5002388;28;20147;-80
2023/04/29 11:13:32;;;;;;;3.63;1.83;;;;;;;23.76;22.03;98680.81;5018737;28;20069;-78
2023/04/29 11:16:10;;;;;;;5.53;1.80;;;;;;;23.82;21.86;98676.53;5001960;28;20411;-78
2023/04/29 11:18:56;;;;;;;;;;;;;;;23.56;21.46;98671.97;5036645;28;20351;-81
2023/04/29 11:21:21;;;;;;;5.32;2.00;;;;;;;23.19;22.01;98668.84;5035805;28;19956;-82
2023/04/29 11:23:47;;;;;;;5.90;1.85;;;;;;;23.10;21.90;98674.34;5018173;28;20096;-80
2023/04/29 11:26:12;;;;;;;5.45;1.90;;;;;;;23.10;22.24;98673.50;5001589;28;20507;-80
2023/04/29 11:28:38;;;;;;;7.18;1.90;;;;;;;22.92;22.03;98663.38;5001451;28;20033;-80
2023/04/29 11:31:03;;;;;;;6.38;2.00;;;;;;;22.84;22.39;98667.03;5018353;28;20117;-80
2023/04/29 11:33:30;;;;;;;4.85;1.90;;;;;;;22.58;22.66;98657.91;5018185;28;20048;-79